createdAt,value
2023-04-19T00:02:34.451Z,101180.17
2023-04-19T00:05:09.326Z,101181.58
2023-04-19T00:07:42.280Z,101180.36
2023-04-19T00:10:22.896Z,101178.45
2023-04-19T00:12:53.450Z,101175.65
2023-04-19T00:15:24.306Z,101173.33
2023-04-19T00:17:57.628Z,101169.98
2023-04-19T00:20:42.921Z,101170.69
2023-04-19T00:23:32.558Z,101170.89
2023-04-19T00:26:06.919Z,101170.20
2023-04-19T00:28:37.753Z,101171.27
2023-04-19T00:31:08.467Z,101168.82
2023-04-19T00:33:39.166Z,101171.66
2023-04-19T00:36:10.975Z,101169.95
2023-04-19T00:38:42.821Z,101169.12
2023-04-19T00:41:15.033Z,101172.83
2023-04-19T00:44:02.175Z,101171.43
2023-04-19T00:46:32.715Z,101166.14
2023-04-19T00:49:05.954Z,101161.75
2023-04-19T00:51:36.949Z,101165.95
2023-04-19T00:54:09.084Z,101164.54
2023-04-19T00:56:39.776Z,101162.77
2023-04-19T00:59:10.475Z,101163.27
2023-04-19T01:02:01.731Z,101162.77
2023-04-19T01:04:44.896Z,101156.81
2023-04-19T01:07:16.718Z,101153.82
2023-04-19T01:09:50.271Z,101149.95
2023-04-19T01:12:28.595Z,101149.45
2023-04-19T01:15:19.321Z,101145.11
2023-04-19T01:17:53.909Z,101144.13
2023-04-19T01:20:33.449Z,101142.73
2023-04-19T01:23:12.605Z,101141.86
2023-04-19T01:25:53.472Z,101142.61
2023-04-19T01:28:25.612Z,101139.82
2023-04-19T01:30:58.439Z,101137.55
2023-04-19T01:33:49.169Z,101134.55
2023-04-19T01:36:34.282Z,101131.10
2023-04-19T01:39:07.735Z,101130.92
2023-04-19T01:41:38.230Z,101128.13
2023-04-19T01:44:29.190Z,101124.60
2023-04-19T01:47:10.913Z,101122.88
2023-04-19T01:49:44.543Z,101120.20
2023-04-19T01:52:15.027Z,101119.48
2023-04-19T01:54:48.094Z,101121.09
2023-04-19T01:57:32.789Z,101114.58
2023-04-19T02:00:04.448Z,101115.99
2023-04-19T02:02:44.877Z,101114.05
2023-04-19T02:05:15.851Z,101110.77
2023-04-19T02:07:46.714Z,101105.84
2023-04-19T02:10:19.786Z,101104.43
2023-04-19T02:12:52.849Z,101097.18
2023-04-19T02:15:23.438Z,101095.08
2023-04-19T02:17:57.326Z,101086.90
2023-04-19T02:20:31.370Z,101088.48
2023-04-19T02:23:01.839Z,101085.68
2023-04-19T02:25:35.070Z,101083.23
2023-04-19T02:28:05.722Z,101086.08
2023-04-19T02:30:41.303Z,101084.70
2023-04-19T02:33:17.248Z,101083.66
2023-04-19T02:35:52.810Z,101081.21
2023-04-19T02:38:31.009Z,101077.95
2023-04-19T02:41:04.408Z,101076.56
2023-04-19T02:43:35.092Z,101075.36
2023-04-19T02:46:08.165Z,101071.87
2023-04-19T02:48:48.141Z,101073.48
2023-04-19T02:51:21.807Z,101073.80
2023-04-19T02:54:03.534Z,101073.42
2023-04-19T02:56:34.739Z,101071.15
2023-04-19T02:59:18.532Z,101065.85
2023-04-19T03:02:09.198Z,101060.80
2023-04-19T03:04:43.358Z,101059.57
2023-04-19T03:07:14.354Z,101056.80
2023-04-19T03:09:45.201Z,101057.31
2023-04-19T03:12:15.940Z,101055.74
2023-04-19T03:14:49.379Z,101053.45
2023-04-19T03:17:20.143Z,101052.76
2023-04-19T03:20:07.962Z,101055.79
2023-04-19T03:22:41.734Z,101053.01
2023-04-19T03:25:13.566Z,101051.96
2023-04-19T03:27:57.313Z,101051.84
2023-04-19T03:30:45.804Z,101048.04
2023-04-19T03:33:19.631Z,101048.61
2023-04-19T03:36:04.206Z,101043.02
2023-04-19T03:38:39.158Z,101042.29
2023-04-19T03:41:21.906Z,101034.38
2023-04-19T03:43:55.423Z,101033.91
2023-04-19T03:46:28.142Z,101032.39
2023-04-19T03:49:10.956Z,101027.02
2023-04-19T03:51:50.844Z,101025.39
2023-04-19T03:54:22.506Z,101024.16
2023-04-19T03:56:53.073Z,101020.83
2023-04-19T03:59:31.829Z,101019.48
2023-04-19T04:02:07.039Z,101022.85
2023-04-19T04:04:36.444Z,101024.65
2023-04-19T04:07:17.693Z,101023.27
2023-04-19T04:09:59.447Z,101021.94
2023-04-19T04:12:50.220Z,101023.61
2023-04-19T04:15:28.179Z,101020.67
2023-04-19T04:18:09.310Z,101017.73
2023-04-19T04:20:44.491Z,101018.05
2023-04-19T04:23:16.569Z,101013.61
2023-04-19T04:26:02.599Z,101012.54
2023-04-19T04:28:56.513Z,101015.64
2023-04-19T04:31:38.555Z,101019.23
2023-04-19T04:34:20.519Z,101014.97
2023-04-19T04:37:11.839Z,101015.70
2023-04-19T04:39:46.012Z,101017.55
2023-04-19T04:42:37.899Z,101017.23
2023-04-19T04:45:13.072Z,101012.63
2023-04-19T04:47:47.940Z,101014.52
2023-04-19T04:50:31.448Z,101013.92
2023-04-19T04:53:11.084Z,101016.71
2023-04-19T04:55:53.798Z,101020.09
2023-04-19T04:58:39.115Z,101024.61
2023-04-19T05:01:26.415Z,101023.77
2023-04-19T05:03:57.357Z,101020.69
2023-04-19T05:06:48.140Z,101023.71
2023-04-19T05:09:23.895Z,101022.84
2023-04-19T05:12:03.934Z,101024.80
2023-04-19T05:14:48.496Z,101024.53
2023-04-19T05:17:39.298Z,101029.17
2023-04-19T05:20:12.168Z,101031.23
2023-04-19T05:23:03.541Z,101033.58
2023-04-19T05:25:50.634Z,101036.23
2023-04-19T05:28:41.301Z,101033.07
2023-04-19T05:31:31.195Z,101032.52
2023-04-19T05:34:25.127Z,101032.89
2023-04-19T05:37:10.575Z,101028.65
2023-04-19T05:39:45.535Z,101030.44
2023-04-19T05:42:36.540Z,101034.02
2023-04-19T05:45:11.581Z,101036.78
2023-04-19T05:47:43.110Z,101032.70
2023-04-19T05:50:33.330Z,101032.89
2023-04-19T05:53:23.143Z,101031.38
2023-04-19T05:55:54.931Z,101027.77
2023-04-19T05:58:28.744Z,101033.27
2023-04-19T06:01:00.041Z,101034.88
2023-04-19T06:03:32.365Z,101036.09
2023-04-19T06:06:15.213Z,101034.34
2023-04-19T06:08:44.742Z,101035.71
2023-04-19T06:11:26.945Z,101032.79
2023-04-19T06:14:09.997Z,101031.30
2023-04-19T06:17:01.915Z,101034.49
2023-04-19T06:19:44.431Z,101033.61
2023-04-19T06:22:34.094Z,101037.61
2023-04-19T06:25:06.123Z,101034.57
2023-04-19T06:27:36.678Z,101034.66
2023-04-19T06:30:11.948Z,101030.73
2023-04-19T06:32:42.546Z,101029.20
2023-04-19T06:35:15.854Z,101026.66
2023-04-19T06:37:56.714Z,101024.20
2023-04-19T06:40:30.283Z,101019.45
2023-04-19T06:43:03.200Z,101014.46
2023-04-19T06:45:38.969Z,101013.84
2023-04-19T06:48:09.738Z,101011.61
2023-04-19T06:50:50.413Z,101013.46
2023-04-19T06:53:21.038Z,101027.95
2023-04-19T06:55:54.811Z,101029.66
2023-04-19T06:58:30.134Z,101030.61
2023-04-19T07:01:02.071Z,101031.34
2023-04-19T07:03:36.341Z,101028.59
2023-04-19T07:06:05.912Z,101028.52
2023-04-19T07:08:48.838Z,101026.10
2023-04-19T07:11:22.332Z,101025.58
2023-04-19T07:13:53.901Z,101030.41
2023-04-19T07:16:23.381Z,101031.42
2023-04-19T07:18:54.474Z,101029.52
2023-04-19T07:21:30.403Z,101029.08
2023-04-19T07:24:10.447Z,101023.36
2023-04-19T07:26:40.834Z,101027.83
2023-04-19T07:29:13.861Z,101023.98
2023-04-19T07:31:44.478Z,101018.84
2023-04-19T07:34:15.464Z,101018.00
2023-04-19T07:36:46.432Z,101014.89
2023-04-19T07:39:17.238Z,101017.60
2023-04-19T07:41:48.054Z,101016.71
2023-04-19T07:44:21.239Z,101014.50
2023-04-19T07:46:52.891Z,101012.17
2023-04-19T07:49:26.532Z,101009.67
2023-04-19T07:52:11.281Z,101011.06
2023-04-19T07:54:41.844Z,101013.40
2023-04-19T07:57:12.510Z,101010.04
2023-04-19T07:59:43.388Z,101006.65
2023-04-19T08:02:14.247Z,101006.52
2023-04-19T08:04:48.400Z,101006.46
2023-04-19T08:07:19.296Z,101003.77
2023-04-19T08:09:50.057Z,101002.89
2023-04-19T08:15:06.675Z,100999.74
2023-04-19T08:17:46.094Z,100999.70
2023-04-19T08:20:17.794Z,100993.80
2023-04-19T08:22:48.350Z,100992.92
2023-04-19T08:25:26.719Z,100990.02
2023-04-19T08:27:58.195Z,100988.41
2023-04-19T08:30:28.845Z,100990.89
2023-04-19T08:32:59.459Z,100991.67
2023-04-19T08:35:30.339Z,100988.79
2023-04-19T08:38:02.588Z,100988.98
2023-04-19T08:40:34.557Z,100988.86
2023-04-19T08:43:09.101Z,100984.67
2023-04-19T08:45:40.479Z,100985.48
2023-04-19T08:48:11.693Z,100979.92
2023-04-19T08:50:56.023Z,100977.63
2023-04-19T08:53:34.263Z,100977.39
2023-04-19T08:56:21.174Z,100973.66
2023-04-19T08:59:15.640Z,100972.02
2023-04-19T09:01:48.928Z,100970.20
2023-04-19T09:04:34.514Z,100966.40
2023-04-19T09:07:08.285Z,100965.54
2023-04-19T09:09:55.612Z,100966.87
2023-04-19T09:12:32.944Z,100967.83
2023-04-19T09:15:05.287Z,100962.88
2023-04-19T09:17:36.377Z,100959.10
2023-04-19T09:20:10.520Z,100952.70
2023-04-19T09:23:07.635Z,100946.02
2023-04-19T09:25:59.327Z,100941.75
2023-04-19T09:28:30.452Z,100943.86
2023-04-19T09:31:33.190Z,100945.07
2023-04-19T09:34:15.590Z,100947.91
2023-04-19T09:36:46.878Z,100941.58
2023-04-19T09:39:31.785Z,100940.98
2023-04-19T09:42:02.275Z,100940.98
2023-04-19T09:45:06.012Z,100939.80
2023-04-19T09:47:30.062Z,100933.98
2023-04-19T09:50:22.567Z,100936.92
2023-04-19T09:52:55.596Z,100928.97
2023-04-19T09:55:29.517Z,100931.02
2023-04-19T09:58:09.744Z,100928.02
2023-04-19T10:00:48.802Z,100929.48
2023-04-19T10:03:29.365Z,100924.77
2023-04-19T10:06:04.294Z,100928.44
2023-04-19T10:08:41.249Z,100925.40
2023-04-19T10:11:47.898Z,100926.41
2023-04-19T10:14:07.720Z,100929.64
2023-04-19T10:16:41.297Z,100928.33
2023-04-19T10:19:12.134Z,100926.63
2023-04-19T10:21:46.502Z,100928.15
2023-04-19T10:24:28.473Z,100927.98
2023-04-19T10:27:15.058Z,100922.92
2023-04-19T10:30:05.067Z,100919.98
2023-04-19T10:32:59.513Z,100922.70
2023-04-19T10:35:35.966Z,100916.51
2023-04-19T10:38:12.533Z,100914.85
2023-04-19T10:41:01.386Z,100911.56
2023-04-19T10:43:34.268Z,100908.48
2023-04-19T10:46:10.003Z,100906.33
2023-04-19T10:48:56.478Z,100898.48
2023-04-19T10:51:30.000Z,100890.10
2023-04-19T10:54:04.596Z,100888.02
2023-04-19T10:57:04.658Z,100877.99
2023-04-19T10:59:36.744Z,100870.55
2023-04-19T11:02:28.818Z,100865.88
2023-04-19T11:05:04.599Z,100857.80
2023-04-19T11:07:45.249Z,100853.00
2023-04-19T11:10:28.658Z,100849.76
2023-04-19T11:12:59.378Z,100850.49
2023-04-19T11:15:29.905Z,100841.39
2023-04-19T11:18:12.089Z,100840.99
2023-04-19T11:20:45.183Z,100835.30
2023-04-19T11:23:19.857Z,100829.27
2023-04-19T11:25:53.546Z,100822.34
2023-04-19T11:28:24.172Z,100813.19
2023-04-19T11:30:55.777Z,100810.44
2023-04-19T11:33:27.255Z,100802.95
2023-04-19T11:35:57.675Z,100798.84
2023-04-19T11:38:30.193Z,100795.39
2023-04-19T11:41:05.304Z,100791.41
2023-04-19T11:43:39.391Z,100786.31
2023-04-19T11:46:11.663Z,100778.02
2023-04-19T11:48:53.188Z,100771.21
2023-04-19T11:51:23.797Z,100770.08
2023-04-19T11:53:54.320Z,100763.78
2023-04-19T11:56:24.841Z,100764.92
2023-04-19T11:59:00.102Z,100762.55
2023-04-19T12:01:32.431Z,100763.77
2023-04-19T12:04:06.310Z,100757.96
2023-04-19T12:06:36.987Z,100755.80
2023-04-19T12:09:10.197Z,100749.40
2023-04-19T12:11:50.102Z,100746.88
2023-04-19T12:14:22.885Z,100742.63
2023-04-19T12:17:11.518Z,100742.66
2023-04-19T12:19:47.177Z,100743.13
2023-04-19T12:22:21.082Z,100738.94
2023-04-19T12:24:54.422Z,100738.27
2023-04-19T12:27:25.761Z,100729.08
2023-04-19T12:29:57.238Z,100729.48
2023-04-19T12:32:27.840Z,100727.67
2023-04-19T12:34:58.516Z,100721.96
2023-04-19T12:37:29.157Z,100716.00
2023-04-19T12:39:59.639Z,100707.55
2023-04-19T12:42:30.022Z,100700.84
2023-04-19T12:45:01.256Z,100689.52
2023-04-19T12:47:30.838Z,100692.34
2023-04-19T12:50:01.910Z,100690.57
2023-04-19T12:52:30.969Z,100687.61
2023-04-19T12:55:01.314Z,100684.27
2023-04-19T12:57:31.694Z,100686.08
2023-04-19T13:00:02.253Z,100681.23
2023-04-19T13:02:34.912Z,100680.02
2023-04-19T13:05:06.350Z,100677.34
2023-04-19T13:07:35.624Z,100677.70
2023-04-19T13:10:07.223Z,100670.25
2023-04-19T13:12:38.461Z,100666.14
2023-04-19T13:15:11.213Z,100662.56
2023-04-19T13:17:41.655Z,100654.59
2023-04-19T13:20:14.008Z,100645.73
2023-04-19T13:22:44.367Z,100645.35
2023-04-19T13:25:14.722Z,100638.90
2023-04-19T13:27:47.022Z,100641.46
2023-04-19T13:30:18.389Z,100632.95
2023-04-19T13:32:49.055Z,100637.07
2023-04-19T13:35:19.749Z,100631.37
2023-04-19T13:37:51.151Z,100625.82
2023-04-19T13:40:21.693Z,100628.48
2023-04-19T13:42:53.090Z,100624.54
2023-04-19T13:45:23.599Z,100624.98
2023-04-19T13:47:54.236Z,100622.55
2023-04-19T13:50:24.915Z,100614.13
2023-04-19T13:52:55.441Z,100613.69
2023-04-19T13:55:25.955Z,100612.17
2023-04-19T13:57:56.362Z,100605.31
2023-04-19T14:00:27.310Z,100606.91
2023-04-19T14:02:58.357Z,100610.15
2023-04-19T14:05:27.348Z,100604.11
2023-04-19T14:07:58.012Z,100597.36
2023-04-19T14:10:29.522Z,100601.52
2023-04-19T14:13:00.122Z,100592.50
2023-04-19T14:15:30.590Z,100596.65
2023-04-19T14:18:01.551Z,100595.96
2023-04-19T14:20:32.033Z,100590.52
2023-04-19T14:23:02.791Z,100591.86
2023-04-19T14:25:33.266Z,100587.41
2023-04-19T14:28:03.829Z,100591.42
2023-04-19T14:30:34.324Z,100586.00
2023-04-19T14:33:05.007Z,100584.36
2023-04-19T14:35:35.665Z,100587.05
2023-04-19T14:38:06.405Z,100584.95
2023-04-19T14:40:37.012Z,100580.16
2023-04-19T14:43:08.034Z,100580.38
2023-04-19T14:45:37.371Z,100576.89
2023-04-19T14:48:08.291Z,100574.80
2023-04-19T14:50:38.632Z,100574.42
2023-04-19T14:53:09.766Z,100571.45
2023-04-19T14:55:40.965Z,100567.64
2023-04-19T14:58:09.847Z,100564.90
2023-04-19T15:00:40.203Z,100562.56
2023-04-19T15:03:11.354Z,100567.88
2023-04-19T15:05:42.221Z,100561.16
2023-04-19T15:08:27.203Z,100562.89
2023-04-19T15:11:00.361Z,100555.05
2023-04-19T15:13:30.862Z,100554.48
2023-04-19T15:16:03.200Z,100553.42
2023-04-19T15:18:33.937Z,100555.20
2023-04-19T15:21:05.561Z,100550.51
2023-04-19T15:23:36.205Z,100545.73
2023-04-19T15:26:06.910Z,100548.59
2023-04-19T15:28:38.334Z,100546.73
2023-04-19T15:31:10.379Z,100552.15
2023-04-19T15:33:41.105Z,100548.98
2023-04-19T15:36:11.825Z,100554.77
2023-04-19T15:38:43.945Z,100554.47
2023-04-19T15:41:14.850Z,100553.41
2023-04-19T15:43:45.337Z,100551.60
2023-04-19T15:46:16.546Z,100549.11
2023-04-19T15:48:48.584Z,100552.04
2023-04-19T15:51:19.181Z,100551.52
2023-04-19T15:53:49.641Z,100554.16
2023-04-19T15:56:20.003Z,100556.41
2023-04-19T15:58:50.379Z,100559.20
2023-04-19T16:01:22.863Z,100561.63
2023-04-19T16:03:53.910Z,100557.23
2023-04-19T16:06:23.318Z,100571.29
2023-04-19T16:08:53.698Z,100579.94
2023-04-19T16:11:24.483Z,100582.48
2023-04-19T16:13:55.206Z,100581.77
2023-04-19T16:16:26.930Z,100584.71
2023-04-19T16:18:57.842Z,100582.09
2023-04-19T16:21:28.952Z,100583.02
2023-04-19T16:24:00.733Z,100588.55
2023-04-19T16:26:31.253Z,100590.64
2023-04-19T16:29:02.012Z,100595.84
2023-04-19T16:31:32.659Z,100590.81
2023-04-19T16:34:03.066Z,100593.79
2023-04-19T16:36:33.539Z,100594.42
2023-04-19T16:39:04.170Z,100596.45
2023-04-19T16:41:34.833Z,100595.98
2023-04-19T16:44:05.671Z,100591.83
2023-04-19T16:46:39.381Z,100594.34
2023-04-19T16:49:12.521Z,100597.52
2023-04-19T16:51:46.147Z,100595.40
2023-04-19T16:54:16.876Z,100597.44
2023-04-19T16:56:47.327Z,100599.23
2023-04-19T16:59:26.747Z,100601.91
2023-04-19T17:02:01.397Z,100603.23
2023-04-19T17:04:33.637Z,100602.80
2023-04-19T17:07:04.513Z,100607.50
2023-04-19T17:09:35.343Z,100599.89
2023-04-19T17:12:07.110Z,100595.98
2023-04-19T17:14:38.002Z,100595.63
2023-04-19T17:17:08.527Z,100599.38
2023-04-19T17:19:48.310Z,100603.89
2023-04-19T17:22:21.413Z,100600.65
2023-04-19T17:24:57.492Z,100609.10
2023-04-19T17:27:39.039Z,100608.27
2023-04-19T17:30:28.393Z,100611.13
2023-04-19T17:32:59.280Z,100614.63
2023-04-19T17:35:30.238Z,100618.52
2023-04-19T17:38:06.503Z,100618.30
2023-04-19T17:40:37.146Z,100623.39
2023-04-19T17:43:08.655Z,100622.45
2023-04-19T17:45:40.285Z,100629.24
2023-04-19T17:48:10.813Z,100627.11
2023-04-19T17:50:41.397Z,100627.32
2023-04-19T17:53:11.924Z,100624.52
2023-04-19T17:56:03.013Z,100627.05
2023-04-19T17:58:53.692Z,100630.45
2023-04-19T18:01:24.569Z,100631.23
2023-04-19T18:03:57.542Z,100628.10
2023-04-19T18:06:48.605Z,100628.61
2023-04-19T18:09:19.451Z,100632.51
2023-04-19T18:11:57.972Z,100630.95
2023-04-19T18:14:31.223Z,100637.63
2023-04-19T18:17:02.204Z,100637.27
2023-04-19T18:19:37.431Z,100640.25
2023-04-19T18:22:07.973Z,100640.11
2023-04-19T18:24:38.527Z,100642.64
2023-04-19T18:27:09.303Z,100648.40
2023-04-19T18:29:39.934Z,100646.77
2023-04-19T18:32:10.790Z,100647.00
2023-04-19T18:34:52.682Z,100647.42
2023-04-19T18:37:23.289Z,100648.55
2023-04-19T18:39:53.859Z,100651.16
2023-04-19T18:42:24.620Z,100652.95
2023-04-19T18:44:57.653Z,100653.63
2023-04-19T18:47:29.781Z,100658.66
2023-04-19T18:50:15.437Z,100659.06
2023-04-19T18:52:52.605Z,100661.16
2023-04-19T18:55:27.551Z,100661.38
2023-04-19T18:58:01.233Z,100665.46
2023-04-19T19:00:53.220Z,100672.66
2023-04-19T19:06:27.601Z,100679.59
2023-04-19T19:09:09.602Z,100681.70
2023-04-19T19:11:56.206Z,100682.30
2023-04-19T19:14:35.714Z,100686.58
2023-04-19T19:17:17.433Z,100682.65
2023-04-19T19:20:10.787Z,100686.80
2023-04-19T19:22:54.842Z,100687.61
2023-04-19T19:25:27.174Z,100688.91
2023-04-19T19:28:06.999Z,100693.55
2023-04-19T19:30:49.718Z,100693.44
2023-04-19T19:33:21.365Z,100693.60
2023-04-19T19:35:54.961Z,100694.98
2023-04-19T19:38:25.867Z,100700.14
2023-04-19T19:43:50.529Z,100702.55
2023-04-19T19:46:24.233Z,100702.83
2023-04-19T19:48:57.423Z,100703.25
2023-04-19T19:51:53.149Z,100707.20
2023-04-19T19:54:23.529Z,100706.17
2023-04-19T19:57:31.744Z,100712.73
2023-04-19T20:00:32.010Z,100711.02
2023-04-19T20:03:02.123Z,100707.75
2023-04-19T20:05:35.719Z,100711.26
2023-04-19T20:08:12.058Z,100712.66
2023-04-19T20:10:44.252Z,100717.58
2023-04-19T20:13:15.190Z,100721.30
2023-04-19T20:15:47.310Z,100726.73
2023-04-19T20:18:20.119Z,100730.43
2023-04-19T20:20:54.078Z,100731.84
2023-04-19T20:23:27.026Z,100734.05
2023-04-19T20:25:59.906Z,100735.54
2023-04-19T20:28:41.663Z,100734.23
2023-04-19T20:31:14.624Z,100730.65
2023-04-19T20:33:47.831Z,100734.56
2023-04-19T20:36:28.478Z,100729.36
2023-04-19T20:39:06.062Z,100732.82
2023-04-19T20:41:37.450Z,100729.95
2023-04-19T20:44:08.310Z,100730.33
2023-04-19T20:46:59.314Z,100730.98
2023-04-19T20:49:29.995Z,100733.98
2023-04-19T20:52:20.841Z,100730.36
2023-04-19T20:55:01.920Z,100728.14
2023-04-19T20:57:32.387Z,100728.45
2023-04-19T21:00:08.582Z,100726.01
2023-04-19T21:02:42.267Z,100729.27
2023-04-19T21:05:13.167Z,100726.39
2023-04-19T21:07:46.286Z,100726.73
2023-04-19T21:10:22.074Z,100724.25
2023-04-19T21:13:06.466Z,100719.85
2023-04-19T21:15:37.492Z,100720.36
2023-04-19T21:18:08.165Z,100718.05
2023-04-19T21:20:39.496Z,100716.41
2023-04-19T21:23:12.401Z,100714.52
2023-04-19T21:25:53.080Z,100711.48
2023-04-19T21:28:26.938Z,100712.37
2023-04-19T21:30:58.545Z,100708.69
2023-04-19T21:33:29.099Z,100709.41
2023-04-19T21:36:10.436Z,100709.42
2023-04-19T21:38:43.948Z,100705.59
2023-04-19T21:41:14.449Z,100707.52
2023-04-19T21:43:47.522Z,100703.66
2023-04-19T21:46:33.376Z,100704.70
2023-04-19T21:49:06.641Z,100703.15
2023-04-19T21:51:45.553Z,100698.25
2023-04-19T21:54:30.651Z,100699.59
2023-04-19T21:57:06.981Z,100701.70
2023-04-19T21:59:39.882Z,100694.49
2023-04-19T22:02:21.041Z,100695.49
2023-04-19T22:04:54.933Z,100695.40
2023-04-19T22:07:30.304Z,100692.56
2023-04-19T22:10:12.258Z,100688.84
2023-04-19T22:12:54.984Z,100695.46
2023-04-19T22:15:48.315Z,100691.77
2023-04-19T22:18:19.162Z,100689.61
2023-04-19T22:21:11.076Z,100686.64
2023-04-19T22:24:01.810Z,100683.31
2023-04-19T22:26:43.691Z,100680.18
2023-04-19T22:29:23.195Z,100677.27
2023-04-19T22:31:53.623Z,100673.94
2023-04-19T22:34:44.449Z,100676.23
2023-04-19T22:37:25.570Z,100670.70
2023-04-19T22:40:12.046Z,100667.12
2023-04-19T22:42:42.848Z,100664.59
2023-04-19T22:45:16.063Z,100659.65
2023-04-19T22:47:46.807Z,100656.91
2023-04-19T22:50:28.591Z,100652.84
2023-04-19T22:53:19.394Z,100652.64
2023-04-19T22:55:53.063Z,100648.94
2023-04-19T22:58:23.701Z,100646.10
2023-04-19T23:01:04.724Z,100644.13
2023-04-19T23:03:38.453Z,100637.66
2023-04-19T23:06:30.218Z,100638.31
2023-04-19T23:09:21.036Z,100631.33
2023-04-19T23:11:51.736Z,100629.89
2023-04-19T23:14:22.367Z,100628.33
2023-04-19T23:16:55.752Z,100620.30
2023-04-19T23:19:30.584Z,100619.08
2023-04-19T23:22:04.218Z,100612.48
2023-04-19T23:24:36.128Z,100609.98
2023-04-19T23:27:17.719Z,100611.16
2023-04-19T23:29:48.273Z,100604.50
2023-04-19T23:32:22.059Z,100603.42
2023-04-19T23:34:52.798Z,100602.17
2023-04-19T23:37:30.740Z,100602.31
2023-04-19T23:40:14.122Z,100601.40
2023-04-19T23:43:04.983Z,100599.79
2023-04-19T23:45:38.548Z,100598.54
2023-04-19T23:48:29.245Z,100593.46
2023-04-19T23:51:20.013Z,100588.36
2023-04-19T23:54:11.165Z,100581.36
2023-04-19T23:57:01.981Z,100580.61
2023-04-19T23:59:33.246Z,100577.06
